»·PEaware :: SWA863 KSLC-KSAN

SWA863 :: KSLC-KSAN

FLIGHT INFORMATION

Flight Status: Arrived
Operator:
Southwest Airlines
More flights by this operator :: More flights under this callsign
Pilot: Maximilliano F. (23467)
Aircraft: BOEING 737-800
(B738)
More flights by this aircraft type
Origin: KSLC Salt Lake City Intl
United States
Destination: KSAN San Diego Intl-Lindbergh
United States
More flights between these airports :: More routes between these airports
Route: +ARCHZ1 WINEN LAKRR Q73 LVELL LUCKI1
File this flight plan on PilotEdge
Remarks: RMK / SIMBRIEF
Altitude:
(Current/Filed)
36,000ft
Speed:
(Current/Filed)
464kts
Departed: 18-Oct-19 05:57 PM
Arrived: 18-Oct-19 07:31 PM
Distance/Time
Traveled:
544nm/1:34
Distance/Time
To Go:
Arrived

Flight Plot

Page will automatically refresh every two minutes.

Flight plan parsing failed; only flown route is shown


Map Options




Map Legend


Flown Route
Filed Route
Departure Airport
Arrival Airport
Navaid (VOR, NDB)
Fix

Horizontal Profiles

Position Reports

Time Latitude Longitude Heading Altitude Ground
Speed
18-Oct-19 17:28 40.784820 -111.978438 8 4235ft 0kts
18-Oct-19 17:30 40.784820 -111.978438 8 4235ft 0kts
18-Oct-19 17:31 40.784820 -111.978438 8 4235ft 0kts
18-Oct-19 17:31 40.784820 -111.978438 8 4235ft 0kts
18-Oct-19 17:32 40.784820 -111.978438 8 4235ft 0kts
18-Oct-19 17:33 40.784820 -111.978438 8 4235ft 0kts
18-Oct-19 17:34 40.784820 -111.978438 8 4235ft 0kts
18-Oct-19 17:35 40.784820 -111.978438 8 4235ft 0kts
18-Oct-19 17:36 40.784820 -111.978438 8 4235ft 0kts
18-Oct-19 17:37 40.784820 -111.978438 8 4235ft 0kts
18-Oct-19 17:38 40.784820 -111.978438 8 4235ft 0kts
18-Oct-19 17:39 40.784820 -111.978438 8 4235ft 0kts
18-Oct-19 17:40 40.784820 -111.978438 8 4235ft 0kts
18-Oct-19 17:41 40.784752 -111.978451 8 4235ft 2kts
18-Oct-19 17:42 40.784158 -111.978564 8 4235ft 2kts
18-Oct-19 17:43 40.783990 -111.978808 86 4235ft 0kts
18-Oct-19 17:44 40.783990 -111.978808 86 4234ft 0kts
18-Oct-19 17:45 40.783990 -111.978808 86 4234ft 0kts
18-Oct-19 17:46 40.784080 -111.977476 84 4235ft 8kts
18-Oct-19 17:47 40.784608 -111.976467 359 4234ft 10kts
18-Oct-19 17:48 40.788832 -111.976960 353 4235ft 17kts
18-Oct-19 17:49 40.793087 -111.977451 356 4235ft 13kts
18-Oct-19 17:50 40.796783 -111.977869 355 4235ft 20kts
18-Oct-19 17:51 40.802423 -111.978459 7 4235ft 17kts
18-Oct-19 17:52 40.806785 -111.978589 355 4234ft 12kts
18-Oct-19 17:53 40.807092 -111.978531 25 4234ft 0kts
18-Oct-19 17:54 40.807092 -111.978531 25 4234ft 0kts
18-Oct-19 17:55 40.807316 -111.978292 48 4234ft 6kts
18-Oct-19 17:56 40.799537 -111.976037 174 4235ft 115kts
18-Oct-19 17:57 40.750287 -111.981982 228 5793ft 216kts
18-Oct-19 17:58 40.763465 -112.055486 307 8675ft 228kts
18-Oct-19 17:59 40.802953 -112.120046 304 9937ft 212kts
18-Oct-19 18:00 40.812521 -112.198710 246 8898ft 255kts
18-Oct-19 18:01 40.766473 -112.268836 228 12906ft 253kts
18-Oct-19 18:02 40.715255 -112.336421 210 16195ft 270kts
18-Oct-19 18:03 40.629799 -112.351723 182 17929ft 346kts
18-Oct-19 18:04 40.537421 -112.342805 184 21024ft 346kts
18-Oct-19 18:05 40.436621 -112.366603 202 22099ft 396kts
18-Oct-19 18:06 40.325471 -112.413258 207 23053ft 461kts
18-Oct-19 18:07 40.212661 -112.465964 209 27924ft 411kts
18-Oct-19 18:08 40.108037 -112.514811 210 31141ft 393kts
18-Oct-19 18:09 40.006890 -112.561998 211 33507ft 383kts
18-Oct-19 18:10 39.908154 -112.607985 211 35412ft 374kts
18-Oct-19 18:11 39.810903 -112.653248 210 36008ft 371kts
18-Oct-19 18:12 39.714268 -112.697926 210 36025ft 371kts
18-Oct-19 18:13 39.611774 -112.745650 209 36027ft 415kts
18-Oct-19 18:14 39.497948 -112.798337 208 36019ft 445kts
18-Oct-19 18:15 39.383313 -112.850817 208 36017ft 441kts
18-Oct-19 18:16 39.267807 -112.903578 208 36013ft 442kts
18-Oct-19 18:17 39.152271 -112.956147 208 36007ft 440kts
18-Oct-19 18:18 39.038009 -113.007990 208 36003ft 442kts
18-Oct-19 18:19 38.922004 -113.060440 208 35993ft 442kts
18-Oct-19 18:20 38.807042 -113.112232 208 35988ft 441kts
18-Oct-19 18:21 38.692429 -113.163705 208 35988ft 441kts
18-Oct-19 18:22 38.576226 -113.215727 208 35987ft 444kts
18-Oct-19 18:23 38.460233 -113.267443 208 35986ft 441kts
18-Oct-19 18:24 38.344535 -113.318865 207 35986ft 442kts
18-Oct-19 18:25 38.228779 -113.370109 207 35982ft 442kts
18-Oct-19 18:26 38.112601 -113.421370 207 35985ft 443kts
18-Oct-19 18:27 37.996646 -113.472325 207 35983ft 442kts
18-Oct-19 18:28 37.880546 -113.523025 207 35984ft 443kts
18-Oct-19 18:29 37.764421 -113.573585 207 35999ft 442kts
18-Oct-19 18:30 37.648272 -113.623990 207 35999ft 443kts
18-Oct-19 18:31 37.533057 -113.673802 206 36013ft 444kts
18-Oct-19 18:32 37.416137 -113.724174 206 36013ft 444kts
18-Oct-19 18:33 37.299462 -113.774304 206 36012ft 444kts
18-Oct-19 18:34 37.182606 -113.824348 206 35976ft 445kts
18-Oct-19 18:35 37.065709 -113.874234 206 35956ft 444kts
18-Oct-19 18:36 36.948731 -113.924002 206 35955ft 445kts
18-Oct-19 18:37 36.832822 -113.973165 206 35955ft 447kts
18-Oct-19 18:38 36.714962 -114.022967 206 35951ft 446kts
18-Oct-19 18:39 36.597411 -114.072503 206 35950ft 447kts
18-Oct-19 18:40 36.480617 -114.123962 205 35981ft 447kts
18-Oct-19 18:41 36.362271 -114.171085 206 35969ft 447kts
18-Oct-19 18:42 36.244642 -114.220171 206 35955ft 447kts
18-Oct-19 18:43 36.127581 -114.270559 212 35950ft 441kts
18-Oct-19 18:44 36.033245 -114.358992 232 35948ft 423kts
18-Oct-19 18:45 35.955191 -114.466566 233 35943ft 422kts
18-Oct-19 18:46 35.877594 -114.573723 233 35937ft 421kts
18-Oct-19 18:47 35.800014 -114.680490 233 35945ft 422kts
18-Oct-19 18:48 35.721701 -114.787887 233 35945ft 422kts
18-Oct-19 18:49 35.643393 -114.894908 233 35944ft 422kts
18-Oct-19 18:50 35.564845 -115.002462 233 35944ft 423kts
18-Oct-19 18:51 35.486621 -115.109551 233 35944ft 422kts
18-Oct-19 18:52 35.408209 -115.216868 233 35934ft 422kts
18-Oct-19 18:53 35.329983 -115.323896 233 35920ft 422kts
18-Oct-19 18:54 35.251781 -115.430852 233 35918ft 422kts
18-Oct-19 18:55 35.173621 -115.538082 233 35917ft 423kts
18-Oct-19 18:56 35.095682 -115.645349 233 35915ft 422kts
18-Oct-19 18:57 35.019137 -115.750504 233 35927ft 423kts
18-Oct-19 18:58 34.941062 -115.857818 233 35926ft 423kts
18-Oct-19 18:59 34.863645 -115.964369 233 35930ft 423kts
18-Oct-19 19:00 34.786146 -116.071027 233 35935ft 406kts
18-Oct-19 19:01 34.693069 -116.134763 178 36043ft 448kts
18-Oct-19 19:02 34.586210 -116.043794 142 35965ft 481kts
18-Oct-19 19:03 34.489292 -115.932656 142 35937ft 483kts
18-Oct-19 19:04 34.391692 -115.821100 142 35928ft 481kts
18-Oct-19 19:05 34.292043 -115.714620 162 35954ft 463kts
18-Oct-19 19:06 34.169696 -115.688737 180 35908ft 448kts
18-Oct-19 19:07 34.050093 -115.695683 203 35872ft 422kts
18-Oct-19 19:08 33.940076 -115.742292 208 35870ft 417kts
18-Oct-19 19:09 33.833665 -115.794151 209 34619ft 417kts
18-Oct-19 19:10 33.727361 -115.845458 208 31682ft 421kts
18-Oct-19 19:11 33.616245 -115.897258 207 28563ft 426kts
18-Oct-19 19:12 33.516118 -115.961680 226 25912ft 387kts
18-Oct-19 19:13 33.448176 -116.059678 239 25846ft 385kts
18-Oct-19 19:14 33.387261 -116.164771 239 25762ft 379kts
18-Oct-19 19:16 33.320124 -116.256977 220 22699ft 386kts
18-Oct-19 19:17 33.225507 -116.315717 211 19724ft 377kts
18-Oct-19 19:18 33.133934 -116.369289 211 17056ft 360kts
18-Oct-19 19:19 33.045665 -116.420838 211 14467ft 348kts
18-Oct-19 19:20 32.969412 -116.480376 225 13993ft 329kts
18-Oct-19 19:21 32.900161 -116.550649 225 12575ft 339kts
18-Oct-19 19:22 32.828704 -116.622514 223 10512ft 321kts
18-Oct-19 19:23 32.769381 -116.690069 237 9034ft 293kts
18-Oct-19 19:24 32.728170 -116.774461 241 6739ft 296kts
18-Oct-19 19:25 32.695072 -116.856982 251 5914ft 246kts
18-Oct-19 19:26 32.675074 -116.931431 269 4628ft 235kts
18-Oct-19 19:27 32.687796 -117.001958 287 3543ft 204kts
18-Oct-19 19:28 32.702341 -117.061398 287 2309ft 163kts
18-Oct-19 19:29 32.714279 -117.110312 287 1340ft 159kts
18-Oct-19 19:30 32.726271 -117.159693 287 458ft 152kts
18-Oct-19 19:31 32.735146 -117.196207 285 21ft 24kts
18-Oct-19 19:32 32.734875 -117.198744 163 20ft 2kts
18-Oct-19 19:33 32.734033 -117.195911 106 21ft 13kts
18-Oct-19 19:33 32.732646 -117.194571 209 21ft 7kts
18-Oct-19 19:35 32.731965 -117.195184 212 21ft 0kts

Navigation Log

Ident Type
Flight plan parsing failed, navigation log unavailable